createdAt,value
2022-10-07T00:01:17.711Z,101147.59
2022-10-07T00:03:45.875Z,101143.19
2022-10-07T00:06:15.708Z,101140.50
2022-10-07T00:08:45.695Z,101119.56
2022-10-07T00:11:16.795Z,101121.81
2022-10-07T00:13:46.636Z,101123.53
2022-10-07T00:16:17.447Z,101128.34
2022-10-07T00:18:46.251Z,101120.13
2022-10-07T00:21:16.458Z,101126.38
2022-10-07T00:23:45.863Z,101122.97
2022-10-07T00:26:17.475Z,101131.75
2022-10-07T00:28:45.695Z,101119.28
2022-10-07T00:31:16.215Z,101111.34
2022-10-07T00:33:44.792Z,101118.31
2022-10-07T00:36:17.691Z,101103.88
2022-10-07T00:38:46.293Z,101115.63
2022-10-07T00:41:19.846Z,101101.47
2022-10-07T00:43:48.998Z,101103.16
2022-10-07T00:46:29.565Z,101110.25
2022-10-07T00:48:59.812Z,101102.88
2022-10-07T00:51:28.425Z,101098.50
2022-10-07T00:53:57.748Z,101096.66
2022-10-07T00:56:29.448Z,101080.81
2022-10-07T00:59:00.116Z,101083.38
2022-10-07T01:01:28.687Z,101083.38
2022-10-07T01:03:56.790Z,101085.34
2022-10-07T01:06:25.003Z,101081.66
2022-10-07T01:08:55.150Z,101083.38
2022-10-07T01:11:37.877Z,101094.13
2022-10-07T01:14:13.506Z,101045.88
2022-10-07T01:16:50.916Z,101078.00
2022-10-07T01:19:43.053Z,101069.91
2022-10-07T01:22:23.161Z,101056.47
2022-10-07T01:25:04.021Z,101054.75
2022-10-07T01:27:38.513Z,101049.38
2022-10-07T01:30:09.011Z,101048.56
2022-10-07T01:32:41.726Z,101048.56
2022-10-07T01:35:15.097Z,101053.94
2022-10-07T01:37:48.566Z,101046.84
2022-10-07T01:40:20.497Z,101052.22
2022-10-07T01:42:52.002Z,100972.69
2022-10-07T01:45:22.345Z,101038.63
2022-10-07T01:47:51.459Z,101027.88
2022-10-07T01:50:24.852Z,101034.13
2022-10-07T01:53:05.168Z,101019.81
2022-10-07T01:55:46.744Z,101015.44
2022-10-07T01:58:27.846Z,101011.75
2022-10-07T02:01:06.463Z,101007.38
2022-10-07T02:03:53.452Z,100997.63
2022-10-07T02:06:35.848Z,101001.28
2022-10-07T02:09:12.539Z,100998.59
2022-10-07T02:11:44.402Z,100993.06
2022-10-07T02:14:17.413Z,100993.94
2022-10-07T02:16:48.403Z,100988.56
2022-10-07T02:19:21.305Z,100979.50
2022-10-07T02:21:53.020Z,100979.50
2022-10-07T02:24:24.404Z,100977.81
2022-10-07T02:26:55.760Z,100974.13
2022-10-07T02:29:28.609Z,100977.81
2022-10-07T02:31:58.905Z,100967.06
2022-10-07T02:34:29.614Z,100861.59
2022-10-07T02:37:01.549Z,100958.28
2022-10-07T02:39:30.080Z,100952.91
2022-10-07T02:42:06.157Z,100947.53
2022-10-07T02:44:42.458Z,100944.16
2022-10-07T02:47:17.747Z,100935.09
2022-10-07T02:49:53.323Z,100936.78
2022-10-07T02:52:24.008Z,100935.09
2022-10-07T02:54:59.154Z,100924.34
2022-10-07T02:57:29.721Z,100926.03
2022-10-07T03:00:01.968Z,100936.78
2022-10-07T03:02:38.164Z,100915.03
2022-10-07T03:05:09.000Z,100931.41
2022-10-07T03:07:37.547Z,100928.56
2022-10-07T03:10:09.061Z,100920.66
2022-10-07T03:12:37.102Z,100917.00
2022-10-07T03:15:08.438Z,100917.00
2022-10-07T03:17:36.837Z,100922.38
2022-10-07T03:20:05.442Z,100908.22
2022-10-07T03:22:34.549Z,100900.16
2022-10-07T03:25:02.922Z,100906.09
2022-10-07T03:27:31.091Z,100891.50
2022-10-07T03:29:59.714Z,100902.53
2022-10-07T03:32:29.801Z,100911.47
2022-10-07T03:34:57.933Z,100904.22
2022-10-07T03:37:26.309Z,100897.16
2022-10-07T03:39:54.889Z,100890.94
2022-10-07T03:42:24.211Z,100891.78
2022-10-07T03:44:52.563Z,100877.34
2022-10-07T03:47:21.820Z,100879.34
2022-10-07T03:49:51.393Z,100886.72
2022-10-07T03:52:20.030Z,100879.34
2022-10-07T03:54:48.137Z,100881.03
2022-10-07T03:57:39.220Z,100870.59
2022-10-07T04:00:08.497Z,100881.03
2022-10-07T04:02:36.876Z,100871.69
2022-10-07T04:05:07.298Z,100860.34
2022-10-07T04:07:35.672Z,100859.22
2022-10-07T04:10:04.065Z,100867.16
2022-10-07T04:12:33.673Z,100867.84
2022-10-07T04:15:02.899Z,100857.09
2022-10-07T04:17:31.795Z,100848.03
2022-10-07T04:20:00.443Z,100854.25
2022-10-07T04:22:30.535Z,100846.03
2022-10-07T04:25:16.329Z,100834.59
2022-10-07T04:27:51.975Z,100834.59
2022-10-07T04:30:20.894Z,100841.50
2022-10-07T04:32:50.937Z,100832.59
2022-10-07T04:35:19.429Z,100836.28
2022-10-07T04:37:51.752Z,100749.56
2022-10-07T04:40:20.521Z,100823.56
2022-10-07T04:43:09.017Z,100814.78
2022-10-07T04:45:38.882Z,100814.78
2022-10-07T04:48:07.613Z,100793.25
2022-10-07T04:50:38.698Z,100818.47
2022-10-07T04:53:09.120Z,100841.66
2022-10-07T04:55:40.115Z,100816.47
2022-10-07T04:58:08.705Z,100804.03
2022-10-07T05:00:37.730Z,100805.69
2022-10-07T05:03:06.030Z,100800.31
2022-10-07T05:05:34.786Z,100807.41
2022-10-07T05:08:03.058Z,100768.16
2022-10-07T05:10:32.759Z,100794.94
2022-10-07T05:13:01.347Z,100790.56
2022-10-07T05:15:29.744Z,100800.31
2022-10-07T05:17:58.054Z,100784.50
2022-10-07T05:20:26.475Z,100799.34
2022-10-07T05:22:55.186Z,100800.31
2022-10-07T05:25:23.642Z,100775.16
2022-10-07T05:27:56.296Z,100791.28
2022-10-07T05:30:24.809Z,100789.56
2022-10-07T05:32:54.696Z,100774.28
2022-10-07T05:35:23.168Z,100790.44
2022-10-07T05:37:55.049Z,100785.06
2022-10-07T05:40:24.198Z,100771.75
2022-10-07T05:42:52.664Z,100777.13
2022-10-07T05:45:22.638Z,100777.13
2022-10-07T05:47:51.931Z,100767.25
2022-10-07T05:50:20.349Z,100768.06
2022-10-07T05:52:49.831Z,100773.44
2022-10-07T05:55:18.663Z,100781.50
2022-10-07T05:57:47.219Z,100780.69
2022-10-07T06:00:16.172Z,100771.75
2022-10-07T06:02:46.993Z,100783.50
2022-10-07T06:05:15.903Z,100786.19
2022-10-07T06:07:44.457Z,100793.25
2022-10-07T06:10:30.446Z,100780.81
2022-10-07T06:13:11.857Z,100787.19
2022-10-07T06:15:40.121Z,100779.97
2022-10-07T06:18:09.751Z,100761.59
2022-10-07T06:20:37.913Z,100785.50
2022-10-07T06:23:07.135Z,100780.81
2022-10-07T06:25:35.831Z,100781.66
2022-10-07T06:28:04.248Z,100778.97
2022-10-07T06:30:32.574Z,100780.81
2022-10-07T06:33:00.840Z,100750.63
2022-10-07T06:35:30.606Z,100783.50
2022-10-07T06:37:59.349Z,100786.19
2022-10-07T06:40:27.851Z,100784.50
2022-10-07T06:42:58.649Z,100782.50
2022-10-07T06:45:28.709Z,100772.50
2022-10-07T06:47:56.910Z,100791.59
2022-10-07T06:50:25.668Z,100780.81
2022-10-07T06:52:55.637Z,100788.91
2022-10-07T06:55:24.563Z,100781.66
2022-10-07T06:57:53.177Z,100775.44
2022-10-07T07:00:21.540Z,100783.66
2022-10-07T07:02:49.826Z,100786.19
2022-10-07T07:05:18.150Z,100773.72
2022-10-07T07:07:46.681Z,100772.06
2022-10-07T07:10:16.651Z,100770.06
2022-10-07T07:12:45.358Z,100772.75
2022-10-07T07:15:14.022Z,100774.44
2022-10-07T07:17:43.350Z,100770.06
2022-10-07T07:20:13.486Z,100780.81
2022-10-07T07:22:42.068Z,100778.13
2022-10-07T07:25:12.100Z,100775.44
2022-10-07T07:27:41.976Z,100779.97
2022-10-07T07:30:11.206Z,100776.28
2022-10-07T07:32:40.229Z,100771.75
2022-10-07T07:35:09.789Z,100773.72
2022-10-07T07:37:38.278Z,100771.75
2022-10-07T07:40:07.325Z,100759.31
2022-10-07T07:42:37.406Z,100765.53
2022-10-07T07:45:09.618Z,100759.63
2022-10-07T07:47:37.840Z,100769.06
2022-10-07T07:50:08.010Z,100756.63
2022-10-07T07:52:36.763Z,100734.91
2022-10-07T07:55:05.597Z,100763.69
2022-10-07T07:57:33.980Z,100753.94
2022-10-07T08:00:02.248Z,100751.09
2022-10-07T08:02:32.437Z,100751.09
2022-10-07T08:05:00.720Z,100756.47
2022-10-07T08:07:28.926Z,100734.13
2022-10-07T08:09:57.421Z,100728.75
2022-10-07T08:12:26.609Z,100716.91
2022-10-07T08:14:54.971Z,100729.75
2022-10-07T08:17:25.040Z,100743.19
2022-10-07T08:19:56.354Z,100737.81
2022-10-07T08:22:24.666Z,100734.41
2022-10-07T08:24:53.299Z,100729.03
2022-10-07T08:27:22.942Z,100739.50
2022-10-07T08:29:51.327Z,100743.50
2022-10-07T08:32:19.851Z,100741.47
2022-10-07T08:34:48.451Z,100736.09
2022-10-07T08:37:18.279Z,100718.13
2022-10-07T08:39:46.443Z,100734.41
2022-10-07T08:42:27.230Z,100732.44
2022-10-07T08:44:55.504Z,100732.44
2022-10-07T08:47:30.517Z,100728.75
2022-10-07T08:50:08.541Z,100725.03
2022-10-07T08:52:51.304Z,100715.28
2022-10-07T08:55:25.776Z,100709.50
2022-10-07T08:58:17.440Z,100716.31
2022-10-07T09:00:54.234Z,100711.22
2022-10-07T09:03:38.747Z,100703.84
2022-10-07T09:06:14.129Z,100700.31
2022-10-07T09:08:48.643Z,100703.84
2022-10-07T09:11:25.906Z,100714.59
2022-10-07T09:13:57.964Z,100703.84
2022-10-07T09:16:31.102Z,100685.63
2022-10-07T09:19:03.881Z,100698.47
2022-10-07T09:21:39.346Z,100695.91
2022-10-07T09:24:20.628Z,100693.09
2022-10-07T09:26:49.560Z,100693.09
2022-10-07T09:29:21.610Z,100692.25
2022-10-07T09:31:50.428Z,100688.88
2022-10-07T09:34:23.465Z,100682.94
2022-10-07T09:37:20.881Z,100695.09
2022-10-07T09:39:52.889Z,100681.66
2022-10-07T09:42:30.421Z,100673.59
2022-10-07T09:45:02.112Z,100685.31
2022-10-07T09:47:36.290Z,100678.97
2022-10-07T09:50:05.869Z,100678.97
2022-10-07T09:52:34.362Z,100675.28
2022-10-07T09:55:37.997Z,100674.25
2022-10-07T09:58:17.445Z,100669.91
2022-10-07T10:00:47.984Z,100665.38
2022-10-07T10:03:17.410Z,100660.81
2022-10-07T10:05:58.954Z,100652.75
2022-10-07T10:08:30.979Z,100643.00
2022-10-07T10:11:02.792Z,100651.22
2022-10-07T10:13:38.465Z,100651.06
2022-10-07T10:16:28.894Z,100654.47
2022-10-07T10:18:59.105Z,100643.72
2022-10-07T10:21:30.672Z,100651.78
2022-10-07T10:24:00.331Z,100641.03
2022-10-07T10:26:48.175Z,100632.56
2022-10-07T10:29:30.478Z,100630.41
2022-10-07T10:32:23.892Z,100631.41
2022-10-07T10:35:00.520Z,100632.25
2022-10-07T10:37:44.525Z,100633.94
2022-10-07T10:40:22.532Z,100630.41
2022-10-07T10:43:00.168Z,100639.31
2022-10-07T10:45:37.304Z,100632.97
2022-10-07T10:48:21.556Z,100603.38
2022-10-07T10:50:57.790Z,100601.69
2022-10-07T10:53:40.636Z,100601.69
2022-10-07T10:56:32.048Z,100606.06
2022-10-07T10:59:33.653Z,100596.31
2022-10-07T11:02:22.651Z,100601.00
2022-10-07T11:04:55.274Z,100607.06
2022-10-07T11:07:29.690Z,100592.13
2022-10-07T11:10:04.227Z,100598.31
2022-10-07T11:12:37.586Z,100589.25
2022-10-07T11:15:15.892Z,100583.88
2022-10-07T11:17:48.178Z,100589.25
2022-10-07T11:20:21.927Z,100573.13
2022-10-07T11:22:56.865Z,100566.72
2022-10-07T11:25:34.584Z,100571.13
2022-10-07T11:28:15.389Z,100565.03
2022-10-07T11:30:53.725Z,100564.03
2022-10-07T11:33:28.980Z,100561.34
2022-10-07T11:36:03.576Z,100553.28
2022-10-07T11:38:35.774Z,100558.66
2022-10-07T11:41:09.367Z,100562.34
2022-10-07T11:43:44.346Z,100558.66
2022-10-07T11:46:18.811Z,100551.59
2022-10-07T11:48:54.851Z,100546.22
2022-10-07T11:51:29.296Z,100540.84
2022-10-07T11:54:03.141Z,100537.16
2022-10-07T11:56:38.243Z,100515.91
2022-10-07T11:59:09.106Z,100528.41
2022-10-07T12:01:52.763Z,100538.00
2022-10-07T12:04:38.406Z,100532.78
2022-10-07T12:07:41.861Z,100533.50
2022-10-07T12:10:26.388Z,100522.72
2022-10-07T12:13:00.799Z,100526.41
2022-10-07T12:15:35.458Z,100512.28
2022-10-07T12:18:28.663Z,100511.97
2022-10-07T12:21:11.845Z,100497.84
2022-10-07T12:23:44.612Z,100507.59
2022-10-07T12:26:48.882Z,100502.22
2022-10-07T12:29:48.483Z,100499.81
2022-10-07T12:32:43.426Z,100488.75
2022-10-07T12:35:51.458Z,100487.09
2022-10-07T12:38:26.393Z,100481.72
2022-10-07T12:41:26.789Z,100504.06
2022-10-07T12:44:01.570Z,100481.72
2022-10-07T12:46:35.513Z,100473.25
2022-10-07T12:49:08.335Z,100491.59
2022-10-07T12:51:40.417Z,100481.72
2022-10-07T12:54:18.437Z,100461.88
2022-10-07T12:56:47.638Z,100477.19
2022-10-07T12:59:49.357Z,100455.69
2022-10-07T13:02:56.098Z,100462.88
2022-10-07T13:06:00.814Z,100457.53
2022-10-07T13:09:17.094Z,100449.44
2022-10-07T13:12:22.320Z,100442.09
2022-10-07T13:15:09.336Z,100435.00
2022-10-07T13:17:47.187Z,100449.13
2022-10-07T13:20:29.498Z,100440.84
2022-10-07T13:22:58.094Z,100435.00
2022-10-07T13:25:27.841Z,100438.38
2022-10-07T13:27:59.848Z,100434.69
2022-10-07T13:30:38.945Z,100433.00
2022-10-07T13:33:26.589Z,100427.63
2022-10-07T13:36:09.822Z,100430.31
2022-10-07T13:38:38.498Z,100416.88
2022-10-07T13:41:14.925Z,100415.19
2022-10-07T13:43:45.499Z,100418.56
2022-10-07T13:46:14.813Z,100416.88
2022-10-07T13:48:46.011Z,100404.28
2022-10-07T13:51:26.086Z,100417.72
2022-10-07T13:53:58.462Z,100402.44
2022-10-07T13:56:32.309Z,100397.06
2022-10-07T13:59:01.693Z,100393.00
2022-10-07T14:01:32.412Z,100397.38
2022-10-07T14:04:21.190Z,100386.28
2022-10-07T14:06:56.220Z,100356.47
2022-10-07T14:09:35.337Z,100390.84
2022-10-07T14:12:09.642Z,100380.25
2022-10-07T14:14:41.084Z,100384.63
2022-10-07T14:17:13.333Z,100371.19
2022-10-07T14:19:42.045Z,100367.63
2022-10-07T14:22:23.227Z,100363.13
2022-10-07T14:24:58.545Z,100361.44
2022-10-07T14:27:56.136Z,100355.22
2022-10-07T14:30:55.519Z,100365.09
2022-10-07T14:33:53.508Z,100345.47
2022-10-07T14:36:23.546Z,100344.28
2022-10-07T14:38:53.101Z,100362.25
2022-10-07T14:41:23.093Z,100345.31
2022-10-07T14:43:53.270Z,100345.00
2022-10-07T14:46:23.212Z,100332.53
2022-10-07T14:48:53.694Z,100354.03
2022-10-07T14:51:24.697Z,100346.66
2022-10-07T14:53:56.254Z,100327.16
2022-10-07T14:56:27.339Z,100328.88
2022-10-07T14:58:57.123Z,100325.78
2022-10-07T15:01:26.954Z,100321.78
2022-10-07T15:03:55.287Z,100319.78
2022-10-07T15:06:23.892Z,100326.84
2022-10-07T15:08:52.250Z,100294.56
2022-10-07T15:11:21.807Z,100298.28
2022-10-07T15:13:51.227Z,100292.91
2022-10-07T15:16:23.463Z,100293.75
2022-10-07T15:18:53.279Z,100287.53
2022-10-07T15:21:23.472Z,100287.53
2022-10-07T15:23:53.294Z,100309.03
2022-10-07T15:26:24.577Z,100296.44
2022-10-07T15:28:55.391Z,100285.84
2022-10-07T15:31:27.031Z,100284.84
2022-10-07T15:33:57.316Z,100276.25
2022-10-07T15:36:25.946Z,100286.34
2022-10-07T15:38:54.580Z,100277.94
2022-10-07T15:41:35.004Z,100281.81
2022-10-07T15:44:06.120Z,100281.81
2022-10-07T15:46:36.859Z,100277.63
2022-10-07T15:49:05.808Z,100278.44
2022-10-07T15:51:36.406Z,100287.19
2022-10-07T15:54:06.537Z,100271.06
2022-10-07T15:56:35.796Z,100264.84
2022-10-07T15:59:04.395Z,100241.78
2022-10-07T16:01:32.885Z,100215.09
2022-10-07T16:04:04.361Z,100266.56
2022-10-07T16:06:35.194Z,100263.00
2022-10-07T16:09:04.589Z,100272.75
2022-10-07T16:11:35.105Z,100266.56
2022-10-07T16:14:04.216Z,100276.44
2022-10-07T16:16:35.484Z,100265.69
2022-10-07T16:19:06.000Z,100264.84
2022-10-07T16:21:36.537Z,100253.25
2022-10-07T16:24:07.174Z,100255.59
2022-10-07T16:26:37.644Z,100252.41
2022-10-07T16:29:24.460Z,100256.94
2022-10-07T16:31:58.157Z,100235.44
2022-10-07T16:34:29.267Z,100246.19
2022-10-07T16:36:59.955Z,100237.28
2022-10-07T16:39:30.881Z,100228.38
2022-10-07T16:42:02.823Z,100230.06
2022-10-07T16:44:31.671Z,100233.75
2022-10-07T16:47:00.435Z,100233.75
2022-10-07T16:49:30.904Z,100231.06
2022-10-07T16:51:59.933Z,100224.69
2022-10-07T16:54:30.461Z,100217.63
2022-10-07T16:56:58.802Z,100218.47
2022-10-07T16:59:27.693Z,100178.72
2022-10-07T17:02:00.369Z,100196.44
2022-10-07T17:04:30.135Z,100199.16
2022-10-07T17:07:00.193Z,100199.81
2022-10-07T17:09:28.791Z,100206.72
2022-10-07T17:11:58.453Z,100200.53
2022-10-07T17:14:27.101Z,100196.50
2022-10-07T17:16:58.342Z,100194.50
2022-10-07T17:19:28.182Z,100183.72
2022-10-07T17:21:58.693Z,100181.22
2022-10-07T17:24:27.378Z,100197.50
2022-10-07T17:26:56.431Z,100188.59
2022-10-07T17:29:26.397Z,100176.97
2022-10-07T17:31:55.259Z,100191.44
2022-10-07T17:34:24.146Z,100191.44
2022-10-07T17:36:54.354Z,100191.44
2022-10-07T17:39:24.216Z,100189.75
2022-10-07T17:41:54.846Z,100194.44
2022-10-07T17:44:23.491Z,100205.91
2022-10-07T17:46:51.797Z,100188.09
2022-10-07T17:49:23.524Z,100193.47
2022-10-07T17:51:52.008Z,100187.25
2022-10-07T17:54:20.386Z,100183.03
2022-10-07T17:56:50.018Z,100175.63
2022-10-07T17:59:18.355Z,100181.00
2022-10-07T18:01:48.057Z,100166.59
2022-10-07T18:04:23.742Z,100161.22
2022-10-07T18:06:53.198Z,100154.13
2022-10-07T18:09:24.559Z,100150.59
2022-10-07T18:12:12.008Z,100156.47
2022-10-07T18:14:57.878Z,100151.44
2022-10-07T18:17:27.473Z,100141.69
2022-10-07T18:19:56.059Z,100138.00
2022-10-07T18:22:24.918Z,100149.06
2022-10-07T18:24:57.249Z,100144.56
2022-10-07T18:27:27.361Z,100155.13
2022-10-07T18:29:57.260Z,100141.69
2022-10-07T18:32:26.416Z,100142.56
2022-10-07T18:34:57.993Z,100146.06
2022-10-07T18:37:26.740Z,100127.25
2022-10-07T18:39:55.492Z,100130.25
2022-10-07T18:42:23.908Z,100120.19
2022-10-07T18:44:53.775Z,100117.50
2022-10-07T18:47:22.863Z,100120.19
2022-10-07T18:49:51.873Z,100120.19
2022-10-07T18:52:20.121Z,100114.81
2022-10-07T18:54:50.837Z,100125.56
2022-10-07T18:57:19.878Z,100112.13
2022-10-07T18:59:48.041Z,100102.38
2022-10-07T19:02:17.761Z,100110.28
2022-10-07T19:04:46.024Z,100048.88
2022-10-07T19:07:14.162Z,100097.81
2022-10-07T19:09:42.580Z,100093.31
2022-10-07T19:12:33.814Z,100093.31
2022-10-07T19:15:01.106Z,100085.25
2022-10-07T19:17:30.805Z,100072.66
2022-10-07T19:20:01.859Z,100087.94
2022-10-07T19:22:30.074Z,100064.06
2022-10-07T19:25:15.511Z,100067.09
2022-10-07T19:27:44.132Z,100050.28
2022-10-07T19:30:12.840Z,100067.44
2022-10-07T19:32:42.999Z,100056.84
2022-10-07T19:35:11.760Z,100048.63
2022-10-07T19:37:40.235Z,100070.13
2022-10-07T19:40:09.495Z,100052.63
2022-10-07T19:42:37.894Z,100052.63
2022-10-07T19:45:09.335Z,100048.63
2022-10-07T19:47:37.550Z,100034.31
2022-10-07T19:50:08.153Z,100027.13
2022-10-07T19:52:36.572Z,100028.44
2022-10-07T19:55:05.124Z,100031.47
2022-10-07T19:57:34.557Z,100027.94
2022-10-07T20:00:02.759Z,100031.97
2022-10-07T20:02:31.041Z,100038.69
2022-10-07T20:05:00.821Z,100048.63
2022-10-07T20:07:30.712Z,100036.16
2022-10-07T20:10:00.309Z,100052.28
2022-10-07T20:12:28.465Z,100045.09
2022-10-07T20:14:56.614Z,100046.91
2022-10-07T20:17:24.842Z,100059.38
2022-10-07T20:19:53.797Z,100035.69
2022-10-07T20:22:21.947Z,100061.03
2022-10-07T20:24:52.181Z,100068.41
2022-10-07T20:27:20.341Z,100080.72
2022-10-07T20:30:02.771Z,100074.50
2022-10-07T20:32:35.690Z,100050.28
2022-10-07T20:35:05.398Z,100044.91
2022-10-07T20:37:34.263Z,100037.88
2022-10-07T20:40:22.817Z,100037.00
2022-10-07T20:42:52.794Z,100044.22
2022-10-07T20:45:22.136Z,100036.16
2022-10-07T20:47:50.389Z,100027.13
2022-10-07T20:50:19.720Z,100027.13
2022-10-07T20:52:48.730Z,100027.13
2022-10-07T20:55:18.810Z,100002.56
2022-10-07T20:57:47.201Z,99934.00
2022-10-07T21:00:17.456Z,100010.97
2022-10-07T21:02:46.744Z,100020.88
2022-10-07T21:05:15.158Z,100006.59
2022-10-07T21:07:44.855Z,100023.75
2022-10-07T21:10:13.603Z,100018.19
2022-10-07T21:12:44.783Z,100008.47
2022-10-07T21:15:13.439Z,100003.91
2022-10-07T21:17:44.547Z,100011.97
2022-10-07T21:20:12.791Z,100017.34
2022-10-07T21:22:41.195Z,100009.28
2022-10-07T21:25:12.131Z,99998.84
2022-10-07T21:27:40.657Z,99983.06
2022-10-07T21:30:12.080Z,99986.09
2022-10-07T21:32:40.786Z,99988.63
2022-10-07T21:35:09.987Z,99962.59
2022-10-07T21:37:38.223Z,99978.03
2022-10-07T21:40:07.982Z,99989.13
2022-10-07T21:42:36.196Z,99993.16
2022-10-07T21:45:05.287Z,99984.44
2022-10-07T21:47:35.098Z,99974.84
2022-10-07T21:50:03.636Z,99976.53
2022-10-07T21:52:32.276Z,99964.94
2022-10-07T21:55:00.663Z,99979.72
2022-10-07T21:57:29.021Z,99975.34
2022-10-07T21:59:57.588Z,99978.72
2022-10-07T22:02:28.344Z,99989.47
2022-10-07T22:04:58.160Z,99974.66
2022-10-07T22:07:43.718Z,99989.47
2022-10-07T22:10:12.166Z,99978.72
2022-10-07T22:12:40.517Z,99977.69
2022-10-07T22:15:10.007Z,99967.97
2022-10-07T22:17:38.371Z,99971.66
2022-10-07T22:20:10.107Z,99968.78
2022-10-07T22:22:38.425Z,99971.66
2022-10-07T22:25:08.537Z,99966.25
2022-10-07T22:27:36.779Z,99975.34
2022-10-07T22:30:05.742Z,99965.63
2022-10-07T22:32:34.293Z,99975.34
2022-10-07T22:35:20.125Z,99967.97
2022-10-07T22:37:49.943Z,99980.41
2022-10-07T22:40:18.696Z,99970.50
2022-10-07T22:42:47.476Z,99971.31
2022-10-07T22:45:17.506Z,99975.88
2022-10-07T22:47:45.745Z,99967.28
2022-10-07T22:50:16.075Z,99955.50
2022-10-07T22:52:45.070Z,99951.31
2022-10-07T22:55:19.154Z,99957.88
2022-10-07T22:57:47.293Z,99949.81
2022-10-07T23:00:16.534Z,99935.38
2022-10-07T23:02:45.680Z,99941.56
2022-10-07T23:05:14.557Z,99935.38
2022-10-07T23:07:44.748Z,99941.91
2022-10-07T23:10:15.896Z,99935.72
2022-10-07T23:12:44.555Z,99938.56
2022-10-07T23:15:13.128Z,99929.97
2022-10-07T23:17:41.563Z,99945.78
2022-10-07T23:20:10.243Z,99950.13
2022-10-07T23:22:40.726Z,99941.44
2022-10-07T23:25:09.771Z,99880.97
2022-10-07T23:27:42.339Z,99943.09
2022-10-07T23:30:11.648Z,99943.94
2022-10-07T23:32:39.955Z,99949.31
2022-10-07T23:35:09.215Z,99946.78
2022-10-07T23:37:37.438Z,99943.09
2022-10-07T23:40:06.565Z,99953.84
2022-10-07T23:42:35.694Z,99954.69
2022-10-07T23:45:06.285Z,99959.22
2022-10-07T23:47:34.492Z,99944.75
2022-10-07T23:50:02.914Z,99958.19
2022-10-07T23:52:31.782Z,99952.19
2022-10-07T23:55:00.525Z,99941.72
2022-10-07T23:57:28.923Z,99953.16
2022-10-07T23:59:57.268Z,99953.50
